Airfield :
LOGIN :

Register | Disclaimer

   EN    FR    IT 

 










Legend :    VFR   Marginal VFR   IFR   Intensive IFR   Very Intensive IFR
Visi :
Ceiling :
>= 8 km
>= 3000ft
5 to 8 km
1000 to 3000 ft
1500m to 5 km
500 to 1000 ft
800 to 1500m
200 to 500 ft
< 800m
< 200 ft
Symbols :   Thunderstorms  Fog  Heavy snow  Heavy precipitations  Wind > 20 kt
SIGMETs :     Misc.  Thunderstorms  Icing  Turbulence  Mountain Waves  Volcanic Ashes






- Airport Elevation : 75 ft
- IATA code : MRH


EGYM - RAF Marham

CURRENT METAR :
  • 270729Z 18005KT 9999 -RA SCT007 SCT010 OVC040 02/01 Q0997 NOSIG RMK GRN GRN

EXPIRED METARs :
  • 270650Z 17005KT 9999 -RA OVC060 02/01 Q0997 BECMG 4000 RA SCT007 RMK BLU BECMG GRN
  • 270550Z 18007KT 9999 -RA BKN070 02/01 Q0997 BLU
  • 270450Z 16006KT 9999 -RA OVC028 03/00 Q0998 BLU

TAF TAF EGYM
Valid from the 27 at 06:00 until the 27 at 15:00 UTC


270413Z 2706/2715 18008KT 9999 BKN030
BECMG 2706/2708 27008KT 4000 RASN RA SCT007 OVC020
PROB30
TEMPO 2708/2712 1500 SN SCT002 BKN004
PROB40
TEMPO 2710/2712 33015G25KT 2000 SHGS BKN015CB
BECMG 2712/2714 31018G28KT 9999 NSW SCT030
TEMPO 2712/2715 6000 SHRA SCT009 BKN020



MET'MAP, your aeronautical weather chart ! - Copyright ORBIFLY December 2007 - Disclaimer

ORBIFLY MET'MAP TEAM :

Programming & Development : Alexandra Zaïnal
Concept & original design : Baudouin d'Aumeries
Assistance for programming : Marc-Olivier Méhu
Technical & hardware support : Manuel Goepfert

Contact : metmap@orbifly.com




SOURCES & CREDITS :

   NOAA